Hlavní strana
METAR-TAF:

METAR-TAF

Letiště :

Redstone Arsenal, Alabama, Spojené státy americké

zeměpisná šířka: 34-40-43N, zeměpisná délka: 086-41-05W, výška: 209 m

Aktuální stav počasí

Zpráva byla vytvořena před 8 minutami, v 08:58 UTC
Severní vítr 4 kt
Teplota 18°C
Vlhkost vzduchu 94%
Tlak 1018 hPa
Viditelnost: 16.1 km
Jasno

METAR: KHUA 300858Z AUTO 35004KT 10SM CLR 18/17 A3005 RMK AO2 SLP171 T01750167 56003

Čas: 04:06 (09:06 UTC)


TAF: chybějící

Stav a předpovědi počasí z více než 4 000 letišť (zprávy METAR a TAF).

Červené a žluté tečky na mapě představují dostupné meteorologické stanice.

Když kurzor umístíte na tečku, zobrazí se název stanice.

Pak kliknutím zobrazíte stav a předpověď počasí.

Chcete-li změnit mapu, kliknutím na zelené tlačítko se znaménkem +mapu přiblížíte, kliknutím na zelené tlačítko se znaménkem – mapu oddálíte a kliknutím na zelené šipky přejdete na sousední mapy.


METAR-TAF: